Time;durP1;ratioP1;P1;durP2;ratioP2;P2;SDS_P1;SDS_P2;PMS_P1;PMS_P2;Temp;Humidity;BMP_temperature;BMP_pressure;BME280_temperature;BME280_humidity;BME280_pressure;Samples;Min_cycle;Max_cycle;Signal;HPM_P1;HPM_P2
2022/02/11 00:01:39;;;;;;;27.42;24.98;;;;;;;;;;5117238;28;20273;-83
2022/02/11 00:04:34;;;;;;;25.30;23.40;;;;;;;;;;5117060;28;20191;-81
2022/02/11 00:07:00;;;;;;;26.17;23.42;;;;;;;;;;5116762;28;20661;-82
2022/02/11 00:09:27;;;;;;;23.58;21.98;;;;;;;;;;5116370;28;20230;-82
2022/02/11 00:11:56;;;;;;;23.63;21.95;;;;;;;;;;5117091;28;20235;-83
2022/02/11 00:14:24;;;;;;;23.00;21.60;;;;;;;;;;5117134;28;20242;-83
2022/02/11 00:16:52;;;;;;;24.50;22.90;;;;;;;;;;5116915;28;20198;-82
2022/02/11 00:19:19;;;;;;;26.98;24.60;;;;;;;;;;5116576;28;20223;-82
2022/02/11 00:21:46;;;;;;;25.23;23.20;;;;;;;;;;5116550;28;20684;-83
2022/02/11 00:24:15;;;;;;;24.90;23.05;;;;;;;;;;5116966;28;20236;-83
2022/02/11 00:26:50;;;;;;;24.45;22.38;;;;;;;;;;5116457;28;20187;-83
2022/02/11 00:32:08;;;;;;;23.48;21.65;;;;;;;;;;5116030;28;20186;-82
2022/02/11 00:34:42;;;;;;;24.58;22.23;;;;;;;;;;5116593;28;20247;-83
2022/02/11 00:37:13;;;;;;;22.80;21.10;;;;;;;;;;5116679;28;20285;-82
2022/02/11 01:04:09;;;;;;;24.25;22.55;;;;;;;;;;5116103;28;20198;-85
2022/02/11 01:06:37;;;;;;;24.17;22.58;;;;;;;;;;5097713;28;20538;-82
2022/02/11 01:09:04;;;;;;;24.85;23.05;;;;;;;;;;5115943;28;20597;-83
2022/02/11 01:11:38;;;;;;;25.15;23.55;;;;;;;;;;5115621;28;20202;-82
2022/02/11 01:14:06;;;;;;;25.48;23.40;;;;;;;;;;5116033;28;20267;-83
2022/02/11 01:16:40;;;;;;;24.90;23.30;;;;;;;;;;5097488;28;20203;-83
2022/02/11 01:19:17;;;;;;;27.10;24.70;;;;;;;;;;5115755;28;20221;-82
2022/02/11 01:21:53;;;;;;;26.52;24.33;;;;;;;;;;5115670;28;20234;-83
2022/02/11 01:24:39;;;;;;;25.50;23.67;;;;;;;;;;5115647;28;20270;-83
2022/02/11 01:27:22;;;;;;;27.10;24.92;;;;;;;;;;5115760;28;20194;-82
2022/02/11 01:30:12;;;;;;;25.95;24.00;;;;;;;;;;5115546;28;20194;-82
2022/02/11 01:32:53;;;;;;;26.45;24.52;;;;;;;;;;5100719;28;20624;-82
2022/02/11 01:35:28;;;;;;;25.00;23.25;;;;;;;;;;5115197;28;20214;-83
2022/02/11 01:38:05;;;;;;;27.05;24.70;;;;;;;;;;5115343;28;20612;-83
2022/02/11 01:49:25;;;;;;;28.48;26.33;;;;;;;;;;5109840;28;20200;-83
2022/02/11 01:51:59;;;;;;;24.63;22.92;;;;;;;;;;5114928;28;20636;-83
2022/02/11 01:54:43;;;;;;;29.85;27.75;;;;;;;;;;5114742;28;20659;-83
2022/02/11 01:57:24;;;;;;;31.88;28.92;;;;;;;;;;5096716;28;20207;-83
2022/02/11 02:00:22;;;;;;;32.65;30.00;;;;;;;;;;5114976;28;20588;-82
2022/02/11 02:03:19;;;;;;;33.80;30.73;;;;;;;;;;5114882;28;20198;-83
2022/02/11 02:06:11;;;;;;;31.75;29.25;;;;;;;;;;5115051;28;20238;-81
2022/02/11 02:22:38;;;;;;;34.10;31.40;;;;;;;;;;5098111;28;20217;-82
2022/02/11 02:25:13;;;;;;;30.92;28.38;;;;;;;;;;5114179;28;20186;-84
2022/02/11 02:28:08;;;;;;;32.70;30.15;;;;;;;;;;5114684;28;20235;-85
2022/02/11 02:58:14;;;;;;;35.10;31.63;;;;;;;;;;5114198;28;20185;-84
2022/02/11 03:01:08;;;;;;;37.90;34.00;;;;;;;;;;5114139;28;20609;-83
2022/02/11 03:15:06;;;;;;;37.92;33.53;;;;;;;;;;5087506;28;20675;-82
2022/02/11 03:51:24;;;;;;;36.10;32.60;;;;;;;;;;5015192;28;20324;-83
2022/02/11 04:55:03;;;;;;;29.88;27.48;;;;;;;;;;5053472;28;20235;-82
2022/02/11 05:00:16;;;;;;;36.47;32.88;;;;;;;;;;5053630;28;20224;-82
2022/02/11 05:02:45;;;;;;;30.95;28.23;;;;;;;;;;5095694;28;20233;-82
2022/02/11 05:05:12;;;;;;;35.95;31.20;;;;;;;;;;5095572;28;20199;-82
2022/02/11 05:07:40;;;;;;;30.75;28.05;;;;;;;;;;5095272;28;20196;-82
2022/02/11 05:10:12;;;;;;;33.55;30.75;;;;;;;;;;5095626;28;20187;-81
2022/02/11 05:12:41;;;;;;;37.42;33.88;;;;;;;;;;5095198;28;20222;-82
2022/02/11 05:15:09;;;;;;;37.67;33.40;;;;;;;;;;5094947;28;20187;-82
2022/02/11 05:17:37;;;;;;;32.55;29.67;;;;;;;;;;5094874;28;20205;-81
2022/02/11 05:20:05;;;;;;;33.72;30.35;;;;;;;;;;5099146;28;20238;-82
2022/02/11 05:22:32;;;;;;;27.38;24.83;;;;;;;;;;5115556;28;20226;-82
2022/02/11 05:25:00;;;;;;;35.13;31.75;;;;;;;;;;5114890;28;20203;-82
2022/02/11 05:27:29;;;;;;;25.63;23.85;;;;;;;;;;5115402;28;20224;-81
2022/02/11 05:29:56;;;;;;;33.53;30.42;;;;;;;;;;5115434;28;20202;-80
2022/02/11 05:32:23;;;;;;;34.85;31.88;;;;;;;;;;5115489;28;20648;-82
2022/02/11 05:34:51;;;;;;;31.02;28.63;;;;;;;;;;5097040;28;20220;-82
2022/02/11 05:37:18;;;;;;;36.85;33.65;;;;;;;;;;5115182;28;20195;-82
2022/02/11 05:39:45;;;;;;;30.35;27.95;;;;;;;;;;5114782;28;20193;-81
2022/02/11 05:42:13;;;;;;;32.75;30.05;;;;;;;;;;5115055;28;20240;-83
2022/02/11 05:44:42;;;;;;;31.58;29.17;;;;;;;;;;5096840;28;20892;-82
2022/02/11 05:47:09;;;;;;;26.08;23.85;;;;;;;;;;5115141;28;20198;-83
2022/02/11 05:49:36;;;;;;;28.45;26.35;;;;;;;;;;5115133;28;20251;-80
2022/02/11 05:52:04;;;;;;;27.77;25.38;;;;;;;;;;5114871;28;20186;-81
2022/02/11 05:54:31;;;;;;;26.55;24.58;;;;;;;;;;5114828;28;20191;-82
2022/02/11 05:56:58;;;;;;;29.38;26.80;;;;;;;;;;5114929;28;20191;-82
2022/02/11 05:59:26;;;;;;;32.67;29.80;;;;;;;;;;5114809;28;20637;-81
2022/02/11 06:01:54;;;;;;;32.17;29.52;;;;;;;;;;5114662;28;20219;-82
2022/02/11 06:04:24;;;;;;;32.47;29.58;;;;;;;;;;5114818;28;20217;-82
2022/02/11 06:06:51;;;;;;;25.45;23.65;;;;;;;;;;5114685;28;20195;-82
2022/02/11 06:09:20;;;;;;;27.10;25.02;;;;;;;;;;5114718;28;20186;-81
2022/02/11 06:11:47;;;;;;;29.40;26.90;;;;;;;;;;5114439;28;20187;-81
2022/02/11 06:14:15;;;;;;;27.48;24.65;;;;;;;;;;5114718;28;20594;-82
2022/02/11 06:16:43;;;;;;;31.15;27.90;;;;;;;;;;5113996;28;20560;-82
2022/02/11 06:19:12;;;;;;;26.67;24.40;;;;;;;;;;5114126;28;20199;-82
2022/02/11 06:21:39;;;;;;;29.13;26.73;;;;;;;;;;5113687;28;20230;-82
2022/02/11 06:24:07;;;;;;;25.23;22.95;;;;;;;;;;5114396;28;20259;-81
2022/02/11 06:26:34;;;;;;;26.85;24.40;;;;;;;;;;5114137;28;20244;-82
2022/02/11 06:29:01;;;;;;;35.38;31.92;;;;;;;;;;5114262;28;20182;-82
2022/02/11 06:31:29;;;;;;;31.45;28.55;;;;;;;;;;5114476;28;20187;-82
2022/02/11 06:33:56;;;;;;;26.50;24.45;;;;;;;;;;5114185;28;20544;-81
2022/02/11 06:36:25;;;;;;;27.98;25.77;;;;;;;;;;5115284;28;20187;-89
2022/02/11 06:38:52;;;;;;;35.78;32.60;;;;;;;;;;5113685;28;20239;-81
2022/02/11 06:41:20;;;;;;;32.08;29.17;;;;;;;;;;5113786;28;20224;-82
2022/02/11 06:43:47;;;;;;;25.83;23.45;;;;;;;;;;5096615;28;20187;-83
2022/02/11 06:46:17;;;;;;;25.85;23.80;;;;;;;;;;5095721;28;20656;-80
2022/02/11 06:48:44;;;;;;;25.38;23.27;;;;;;;;;;5113623;28;20633;-79
2022/02/11 06:51:12;;;;;;;22.88;21.38;;;;;;;;;;5113455;28;20525;-78
2022/02/11 06:53:40;;;;;;;23.35;21.38;;;;;;;;;;5113285;28;20198;-78
2022/02/11 06:56:08;;;;;;;24.10;22.02;;;;;;;;;;5113403;28;20198;-80
2022/02/11 06:58:35;;;;;;;23.17;21.67;;;;;;;;;;5113957;28;20681;-82
2022/02/11 07:01:03;;;;;;;23.10;21.15;;;;;;;;;;5113294;28;20223;-82
2022/02/11 07:03:31;;;;;;;20.95;19.05;;;;;;;;;;5112944;28;20334;-77
2022/02/11 07:05:58;;;;;;;22.70;21.10;;;;;;;;;;5113160;28;20636;-78
2022/02/11 07:08:26;;;;;;;21.92;20.38;;;;;;;;;;5113252;28;20201;-78
2022/02/11 07:10:55;;;;;;;25.27;23.02;;;;;;;;;;5113065;28;20581;-78
2022/02/11 07:13:23;;;;;;;37.85;35.00;;;;;;;;;;5113061;28;20685;-79
2022/02/11 07:15:50;;;;;;;34.05;31.40;;;;;;;;;;5113025;28;20194;-78
2022/02/11 07:18:17;;;;;;;34.15;31.55;;;;;;;;;;5094966;28;20518;-78
2022/02/11 07:20:45;;;;;;;30.92;29.05;;;;;;;;;;5112630;28;20230;-78
2022/02/11 07:23:13;;;;;;;28.98;26.88;;;;;;;;;;5114488;28;20186;-78
2022/02/11 07:25:40;;;;;;;32.55;30.05;;;;;;;;;;5117248;28;20198;-81
2022/02/11 07:28:09;;;;;;;34.85;31.88;;;;;;;;;;5117591;28;20239;-79
2022/02/11 07:30:36;;;;;;;41.00;37.08;;;;;;;;;;5117326;28;20198;-80
2022/02/11 07:33:04;;;;;;;29.55;27.45;;;;;;;;;;5116658;28;20670;-80
2022/02/11 07:35:31;;;;;;;30.38;28.27;;;;;;;;;;5117252;28;20186;-80
2022/02/11 07:37:59;;;;;;;28.75;27.15;;;;;;;;;;5116873;28;20628;-80
2022/02/11 07:40:26;;;;;;;28.83;26.50;;;;;;;;;;5117017;28;20737;-81
2022/02/11 07:42:53;;;;;;;27.73;25.83;;;;;;;;;;5117100;28;20564;-82
2022/02/11 07:45:24;;;;;;;26.90;24.77;;;;;;;;;;5117222;28;20194;-80
2022/02/11 07:47:51;;;;;;;25.33;23.98;;;;;;;;;;5116787;28;20191;-80
2022/02/11 07:50:19;;;;;;;24.58;22.65;;;;;;;;;;5116809;28;20214;-80
2022/02/11 07:52:46;;;;;;;24.35;22.25;;;;;;;;;;5117068;28;20195;-80
2022/02/11 07:55:13;;;;;;;23.08;21.80;;;;;;;;;;5116439;28;20664;-80
2022/02/11 07:57:41;;;;;;;25.58;23.60;;;;;;;;;;5116554;28;20190;-80
2022/02/11 08:00:10;;;;;;;23.42;22.08;;;;;;;;;;5116164;28;20187;-79
2022/02/11 08:02:43;;;;;;;23.58;21.40;;;;;;;;;;5116505;28;20258;-79
2022/02/11 08:05:10;;;;;;;22.77;21.35;;;;;;;;;;5116339;28;20187;-79
2022/02/11 08:07:38;;;;;;;23.15;21.92;;;;;;;;;;5116314;28;20190;-79
2022/02/11 08:10:05;;;;;;;22.85;21.23;;;;;;;;;;5116467;28;20255;-79
2022/02/11 08:12:34;;;;;;;25.80;22.50;;;;;;;;;;5116344;28;20194;-80
2022/02/11 08:15:03;;;;;;;22.40;21.20;;;;;;;;;;5115979;28;20621;-80
2022/02/11 08:17:30;;;;;;;21.92;20.55;;;;;;;;;;5115922;28;20202;-80
2022/02/11 08:19:59;;;;;;;21.88;20.70;;;;;;;;;;5115738;28;20806;-80
2022/02/11 08:22:27;;;;;;;22.40;21.00;;;;;;;;;;5097801;28;20222;-80
2022/02/11 08:24:54;;;;;;;20.90;19.70;;;;;;;;;;5116410;28;20324;-80
2022/02/11 08:27:21;;;;;;;21.85;20.38;;;;;;;;;;5116672;28;20229;-82
2022/02/11 08:29:49;;;;;;;21.95;20.67;;;;;;;;;;5116796;28;20248;-86
2022/02/11 08:32:19;;;;;;;21.80;20.40;;;;;;;;;;5116507;28;20281;-88
2022/02/11 08:34:47;;;;;;;22.20;20.70;;;;;;;;;;5115325;28;20194;-86
2022/02/11 08:37:15;;;;;;;23.17;21.92;;;;;;;;;;5116628;28;20274;-87
2022/02/11 08:39:43;;;;;;;22.02;20.63;;;;;;;;;;5117118;28;20187;-84
2022/02/11 08:42:10;;;;;;;23.10;21.50;;;;;;;;;;5116615;28;20724;-82
2022/02/11 08:44:38;;;;;;;24.80;22.90;;;;;;;;;;5116209;28;20187;-83
2022/02/11 08:47:05;;;;;;;23.13;21.73;;;;;;;;;;5116707;28;20185;-84
2022/02/11 08:49:33;;;;;;;24.00;22.50;;;;;;;;;;5098154;28;20244;-83
2022/02/11 08:52:00;;;;;;;24.13;22.42;;;;;;;;;;5116857;28;20191;-92
2022/02/11 08:54:29;;;;;;;24.00;22.77;;;;;;;;;;5116762;28;20574;-84
2022/02/11 08:56:56;;;;;;;24.08;22.80;;;;;;;;;;5116625;28;20742;-84
2022/02/11 08:59:24;;;;;;;27.35;25.77;;;;;;;;;;5116157;28;20205;-84
2022/02/11 09:01:51;;;;;;;28.38;26.10;;;;;;;;;;5116050;28;20218;-81
2022/02/11 09:04:19;;;;;;;27.13;25.38;;;;;;;;;;5115380;28;20602;-78
2022/02/11 09:06:47;;;;;;;27.52;25.20;;;;;;;;;;5115268;28;20228;-78
2022/02/11 09:09:15;;;;;;;25.33;24.15;;;;;;;;;;5096939;28;20205;-79
2022/02/11 09:11:44;;;;;;;27.67;25.85;;;;;;;;;;5115206;28;20194;-80
2022/02/11 09:14:11;;;;;;;26.27;24.55;;;;;;;;;;5114903;28;20244;-79
2022/02/11 09:16:39;;;;;;;25.50;23.70;;;;;;;;;;5115215;28;20187;-80
2022/02/11 09:19:09;;;;;;;26.88;25.10;;;;;;;;;;5115324;28;20200;-81
2022/02/11 09:21:37;;;;;;;27.85;25.35;;;;;;;;;;5114825;28;20573;-80
2022/02/11 09:24:04;;;;;;;30.00;28.08;;;;;;;;;;5115262;28;20191;-79
2022/02/11 09:26:33;;;;;;;31.08;29.27;;;;;;;;;;5114848;28;20217;-80
2022/02/11 09:29:02;;;;;;;29.60;27.73;;;;;;;;;;5114982;28;20187;-80
2022/02/11 09:31:29;;;;;;;37.33;35.17;;;;;;;;;;5114900;28;20211;-80
2022/02/11 09:34:03;;;;;;;29.73;28.13;;;;;;;;;;5114963;28;20201;-79
2022/02/11 09:42:13;;;;;;;31.05;28.90;;;;;;;;;;5114527;28;20265;-80
2022/02/11 09:44:43;;;;;;;32.80;30.65;;;;;;;;;;5114722;28;20190;-80
2022/02/11 09:47:11;;;;;;;31.45;29.08;;;;;;;;;;5114220;28;20201;-80
2022/02/11 09:49:39;;;;;;;32.97;30.88;;;;;;;;;;5114474;28;20234;-80
2022/02/11 09:52:07;;;;;;;32.63;30.00;;;;;;;;;;5114570;28;20194;-80
2022/02/11 09:54:34;;;;;;;31.40;29.70;;;;;;;;;;5114423;28;20195;-80
2022/02/11 09:57:01;;;;;;;31.52;29.75;;;;;;;;;;5114490;28;20231;-79
2022/02/11 09:59:29;;;;;;;31.55;29.45;;;;;;;;;;5114310;28;20199;-83
2022/02/11 10:01:58;;;;;;;30.98;28.65;;;;;;;;;;5114588;28;20214;-85
2022/02/11 10:04:25;;;;;;;31.73;30.20;;;;;;;;;;5114608;28;20652;-78
2022/02/11 10:06:53;;;;;;;33.28;30.58;;;;;;;;;;5113795;28;20191;-80
2022/02/11 10:09:22;;;;;;;31.27;29.38;;;;;;;;;;5113782;28;20193;-78
2022/02/11 10:11:50;;;;;;;30.75;28.80;;;;;;;;;;5113936;28;20186;-78
2022/02/11 10:14:18;;;;;;;31.20;29.60;;;;;;;;;;5113765;28;20651;-77
2022/02/11 10:16:53;;;;;;;33.10;30.75;;;;;;;;;;5113859;28;20191;-79
2022/02/11 10:19:36;;;;;;;35.20;32.67;;;;;;;;;;5114058;28;20198;-81
2022/02/11 10:22:13;;;;;;;35.28;33.00;;;;;;;;;;5114003;28;20218;-81
2022/02/11 10:24:41;;;;;;;31.15;29.55;;;;;;;;;;5095978;28;20659;-81
2022/02/11 10:27:17;;;;;;;34.58;32.60;;;;;;;;;;5095780;28;20202;-82
2022/02/11 10:29:44;;;;;;;31.92;30.42;;;;;;;;;;5114207;28;20194;-81
2022/02/11 10:32:12;;;;;;;29.02;27.52;;;;;;;;;;5114137;28;20197;-82
2022/02/11 10:34:40;;;;;;;28.67;26.98;;;;;;;;;;5114022;28;20243;-81
2022/02/11 10:37:11;;;;;;;29.52;27.15;;;;;;;;;;5114037;28;20191;-81
2022/02/11 10:39:39;;;;;;;28.77;27.25;;;;;;;;;;5114171;28;20187;-82
2022/02/11 10:42:08;;;;;;;31.65;30.13;;;;;;;;;;5114097;28;20210;-81
2022/02/11 10:44:37;;;;;;;30.85;28.52;;;;;;;;;;5114028;28;20218;-81
2022/02/11 10:47:07;;;;;;;33.63;31.88;;;;;;;;;;5113523;28;20282;-82
2022/02/11 10:49:35;;;;;;;31.85;30.02;;;;;;;;;;5113933;28;20679;-78
2022/02/11 10:52:10;;;;;;;32.20;30.60;;;;;;;;;;5114088;28;20194;-82
2022/02/11 10:54:39;;;;;;;30.13;28.48;;;;;;;;;;5113641;28;20190;-82
2022/02/11 10:57:09;;;;;;;29.10;27.70;;;;;;;;;;5113094;28;20203;-82
2022/02/11 10:59:37;;;;;;;30.73;29.02;;;;;;;;;;5113052;28;20232;-82
2022/02/11 11:02:05;;;;;;;30.45;28.30;;;;;;;;;;5113543;28;20557;-82
2022/02/11 11:04:33;;;;;;;27.20;25.58;;;;;;;;;;5113592;28;20637;-83
2022/02/11 11:07:02;;;;;;;28.98;27.25;;;;;;;;;;5113833;28;20698;-84
2022/02/11 11:09:29;;;;;;;28.70;27.20;;;;;;;;;;5113978;28;20187;-82
2022/02/11 11:12:00;;;;;;;28.38;26.67;;;;;;;;;;5113569;28;20627;-80
2022/02/11 11:14:27;;;;;;;21.92;20.67;;;;;;;;;;5113481;28;20182;-81
2022/02/11 11:16:55;;;;;;;23.15;20.98;;;;;;;;;;5095056;28;20198;-81
2022/02/11 11:19:24;;;;;;;21.35;20.15;;;;;;;;;;5113475;28;20190;-80
2022/02/11 11:22:11;;;;;;;23.35;22.17;;;;;;;;;;5112845;28;20242;-80
2022/02/11 11:24:40;;;;;;;22.13;20.92;;;;;;;;;;5113306;28;20580;-81
2022/02/11 11:27:09;;;;;;;20.33;19.33;;;;;;;;;;5113381;28;20197;-80
2022/02/11 11:29:36;;;;;;;20.58;19.58;;;;;;;;;;5113314;28;20204;-80
2022/02/11 11:32:05;;;;;;;22.40;20.67;;;;;;;;;;5112787;28;20705;-81
2022/02/11 11:34:33;;;;;;;19.50;18.60;;;;;;;;;;5112902;28;20526;-81
2022/02/11 11:37:08;;;;;;;20.73;19.50;;;;;;;;;;5113367;28;20236;-81
2022/02/11 11:39:35;;;;;;;19.33;18.17;;;;;;;;;;5112920;28;20198;-81
2022/02/11 11:42:06;;;;;;;19.70;18.80;;;;;;;;;;5113000;28;20245;-81
2022/02/11 11:44:44;;;;;;;21.10;19.10;;;;;;;;;;5112830;28;20274;-80
2022/02/11 11:47:16;;;;;;;20.98;19.92;;;;;;;;;;5112997;28;20242;-81
2022/02/11 11:49:49;;;;;;;19.83;18.40;;;;;;;;;;5113279;28;20287;-81
2022/02/11 11:52:17;;;;;;;19.15;17.95;;;;;;;;;;5113034;28;20644;-84
2022/02/11 11:54:44;;;;;;;19.85;18.65;;;;;;;;;;5113428;28;20392;-83
2022/02/11 11:57:14;;;;;;;19.70;18.45;;;;;;;;;;5113607;28;20191;-83
2022/02/11 11:59:59;;;;;;;19.35;18.30;;;;;;;;;;5113630;28;20195;-83
2022/02/11 12:02:28;;;;;;;20.20;18.50;;;;;;;;;;5114760;28;20901;-80
2022/02/11 12:04:56;;;;;;;20.17;18.67;;;;;;;;;;5113045;28;20195;-80
2022/02/11 12:07:24;;;;;;;19.90;18.80;;;;;;;;;;5113309;28;20187;-81
2022/02/11 12:09:53;;;;;;;20.25;19.17;;;;;;;;;;5114953;28;20186;-81
2022/02/11 12:12:21;;;;;;;20.65;18.92;;;;;;;;;;5098119;28;20290;-82
2022/02/11 12:14:49;;;;;;;20.70;19.25;;;;;;;;;;5098308;28;20553;-81
2022/02/11 12:17:17;;;;;;;19.85;18.75;;;;;;;;;;5116778;28;20733;-81
2022/02/11 12:19:46;;;;;;;20.23;18.92;;;;;;;;;;5116407;28;20279;-81
2022/02/11 12:22:14;;;;;;;19.27;18.15;;;;;;;;;;5116957;28;20211;-82
2022/02/11 12:27:30;;;;;;;18.90;17.58;;;;;;;;;;5116541;28;20186;-83
2022/02/11 12:29:58;;;;;;;20.30;18.65;;;;;;;;;;5116470;28;20282;-82
2022/02/11 12:32:26;;;;;;;18.52;17.20;;;;;;;;;;5116236;28;20187;-82
2022/02/11 12:34:58;;;;;;;19.08;17.90;;;;;;;;;;5116164;28;20589;-82
2022/02/11 12:37:26;;;;;;;18.75;17.40;;;;;;;;;;5116175;28;20191;-82
2022/02/11 12:40:11;;;;;;;20.15;18.45;;;;;;;;;;5116305;28;20190;-82
2022/02/11 12:42:40;;;;;;;19.13;17.85;;;;;;;;;;5116241;28;20574;-82
2022/02/11 12:45:08;;;;;;;18.20;17.10;;;;;;;;;;5115730;28;20621;-82
2022/02/11 12:47:36;;;;;;;18.83;17.33;;;;;;;;;;5116143;28;20194;-82
2022/02/11 12:50:06;;;;;;;18.60;17.50;;;;;;;;;;5115996;28;20629;-84
2022/02/11 12:52:36;;;;;;;18.52;17.63;;;;;;;;;;5116295;28;20212;-82
2022/02/11 12:55:06;;;;;;;18.90;17.90;;;;;;;;;;5116174;28;20191;-82
2022/02/11 12:57:34;;;;;;;20.20;18.75;;;;;;;;;;5115569;28;20640;-82
2022/02/11 13:00:02;;;;;;;18.80;17.80;;;;;;;;;;5115736;28;20190;-81
2022/02/11 13:02:30;;;;;;;18.90;17.70;;;;;;;;;;5115886;28;20214;-82
2022/02/11 13:05:09;;;;;;;18.10;17.10;;;;;;;;;;5115819;28;20521;-82
2022/02/11 13:07:38;;;;;;;18.23;17.23;;;;;;;;;;5115696;28;20187;-81
2022/02/11 13:10:06;;;;;;;19.20;18.10;;;;;;;;;;5115855;28;20198;-81
2022/02/11 13:12:41;;;;;;;18.50;17.45;;;;;;;;;;5115483;28;20191;-81
2022/02/11 13:15:10;;;;;;;18.10;17.00;;;;;;;;;;5097272;28;20197;-82
2022/02/11 13:17:38;;;;;;;19.30;18.10;;;;;;;;;;5097472;28;20533;-80
2022/02/11 13:20:06;;;;;;;20.38;19.08;;;;;;;;;;5114696;28;20249;-83
2022/02/11 13:22:35;;;;;;;18.55;17.38;;;;;;;;;;5096433;28;20737;-82
2022/02/11 13:25:03;;;;;;;20.30;18.70;;;;;;;;;;5115403;28;20206;-81
2022/02/11 13:27:43;;;;;;;19.27;17.98;;;;;;;;;;5116247;28;20191;-81
2022/02/11 13:30:11;;;;;;;19.05;17.75;;;;;;;;;;5115210;28;20271;-81
2022/02/11 13:32:38;;;;;;;20.10;18.48;;;;;;;;;;5096670;28;20203;-78
2022/02/11 13:35:19;;;;;;;19.95;18.77;;;;;;;;;;5114674;28;20552;-78
2022/02/11 13:37:50;;;;;;;19.70;18.50;;;;;;;;;;5114639;28;20497;-80
2022/02/11 13:40:20;;;;;;;20.35;18.73;;;;;;;;;;5114763;28;20193;-80
2022/02/11 13:42:54;;;;;;;20.55;19.08;;;;;;;;;;5113563;28;20215;-80
2022/02/11 13:45:21;;;;;;;19.20;18.20;;;;;;;;;;5114707;28;20187;-81
2022/02/11 13:48:06;;;;;;;23.33;21.60;;;;;;;;;;5096058;28;20206;-81
2022/02/11 13:50:34;;;;;;;19.92;18.63;;;;;;;;;;5112754;28;20187;-81
2022/02/11 13:53:03;;;;;;;20.67;19.08;;;;;;;;;;5114418;28;20543;-81
2022/02/11 13:55:30;;;;;;;19.75;18.45;;;;;;;;;;5114042;28;20198;-80
2022/02/11 13:57:58;;;;;;;20.88;19.15;;;;;;;;;;5114396;28;20277;-80
2022/02/11 14:00:26;;;;;;;20.35;18.90;;;;;;;;;;5114337;28;20195;-80
2022/02/11 14:02:53;;;;;;;19.98;18.65;;;;;;;;;;5114461;28;20302;-80
2022/02/11 14:05:22;;;;;;;20.20;18.90;;;;;;;;;;5114397;28;20190;-80
2022/02/11 14:07:52;;;;;;;21.88;20.13;;;;;;;;;;5114774;28;20194;-93
2022/02/11 14:10:21;;;;;;;20.48;18.85;;;;;;;;;;5116767;28;20190;-94
2022/02/11 14:12:48;;;;;;;20.70;18.83;;;;;;;;;;5115911;28;20190;-94
2022/02/11 14:15:17;;;;;;;20.48;18.50;;;;;;;;;;5115828;28;20190;-93
2022/02/11 14:17:44;;;;;;;21.13;19.48;;;;;;;;;;5116437;28;20186;-94
2022/02/11 14:20:12;;;;;;;20.73;19.20;;;;;;;;;;5116578;28;20234;-96
2022/02/11 14:22:39;;;;;;;20.45;18.52;;;;;;;;;;5122729;28;20199;-94
2022/02/11 14:25:07;;;;;;;20.30;19.00;;;;;;;;;;5762629;22;20237;-87
2022/02/11 14:32:48;;;;;;;20.60;19.17;;;;;;;;;;5824155;22;20324;-86
2022/02/11 14:35:15;;;;;;;21.33;19.60;;;;;;;;;;5014344;28;20190;-87
2022/02/11 14:37:42;;;;;;;20.75;19.35;;;;;;;;;;5015470;28;20201;-96
2022/02/11 14:40:10;;;;;;;21.02;19.50;;;;;;;;;;5017314;28;20198;-86
2022/02/11 14:42:38;;;;;;;20.40;19.08;;;;;;;;;;5016302;28;20195;-87
2022/02/11 14:45:05;;;;;;;21.00;19.65;;;;;;;;;;5014099;28;20186;-87
2022/02/11 14:47:33;;;;;;;20.85;19.08;;;;;;;;;;5020179;28;20525;-94
2022/02/11 14:50:02;;;;;;;20.15;18.60;;;;;;;;;;5016214;28;20190;-86
2022/02/11 14:52:29;;;;;;;20.33;18.90;;;;;;;;;;5014495;28;20197;-84
2022/02/11 14:54:58;;;;;;;20.00;18.80;;;;;;;;;;5012882;28;20568;-86
2022/02/11 14:57:25;;;;;;;19.58;18.27;;;;;;;;;;5015004;28;20199;-91
2022/02/11 14:59:53;;;;;;;22.30;19.83;;;;;;;;;;5013059;28;20325;-82
2022/02/11 15:02:21;;;;;;;20.23;18.75;;;;;;;;;;5014224;28;20281;-93
2022/02/11 15:04:48;;;;;;;21.02;18.85;;;;;;;;;;5014992;28;20218;-89
2022/02/11 15:07:17;;;;;;;20.88;19.17;;;;;;;;;;5013664;28;20198;-89
2022/02/11 15:09:45;;;;;;;19.95;18.45;;;;;;;;;;5014055;28;20285;-88
2022/02/11 15:12:13;;;;;;;19.10;17.73;;;;;;;;;;5014202;28;20198;-90
2022/02/11 15:14:40;;;;;;;18.65;17.55;;;;;;;;;;5014278;28;20190;-94
2022/02/11 15:17:07;;;;;;;19.48;18.10;;;;;;;;;;5014566;28;20186;-87
2022/02/11 15:19:37;;;;;;;19.50;18.23;;;;;;;;;;5014174;28;20580;-90
2022/02/11 15:22:04;;;;;;;19.75;18.15;;;;;;;;;;5014195;28;20197;-86
2022/02/11 15:24:33;;;;;;;21.25;19.00;;;;;;;;;;5014054;28;20564;-87
2022/02/11 15:27:00;;;;;;;20.60;19.05;;;;;;;;;;5013943;28;20261;-87
2022/02/11 15:29:28;;;;;;;19.60;18.40;;;;;;;;;;5014316;28;20190;-89
2022/02/11 15:31:55;;;;;;;19.05;17.75;;;;;;;;;;5014157;28;20554;-86
2022/02/11 15:34:23;;;;;;;19.70;18.27;;;;;;;;;;5013592;28;20234;-86
2022/02/11 15:36:50;;;;;;;22.08;19.90;;;;;;;;;;5013969;28;20191;-87
2022/02/11 15:39:17;;;;;;;20.73;19.00;;;;;;;;;;5014052;28;20202;-91
2022/02/11 15:41:48;;;;;;;20.75;19.15;;;;;;;;;;5014277;28;20197;-88
2022/02/11 15:44:15;;;;;;;20.00;18.58;;;;;;;;;;5015262;28;20218;-91
2022/02/11 15:46:42;;;;;;;20.30;19.00;;;;;;;;;;5017820;28;20197;-86
2022/02/11 15:49:10;;;;;;;24.02;20.00;;;;;;;;;;5016961;28;20194;-86
2022/02/11 15:51:37;;;;;;;20.73;18.92;;;;;;;;;;5016012;28;20213;-85
2022/02/11 15:54:05;;;;;;;22.15;20.55;;;;;;;;;;5017412;28;20194;-85
2022/02/11 15:56:32;;;;;;;20.25;18.95;;;;;;;;;;5017518;28;20540;-92
2022/02/11 15:59:01;;;;;;;21.65;20.05;;;;;;;;;;5017046;28;20241;-86
2022/02/11 16:01:29;;;;;;;20.88;19.30;;;;;;;;;;5018018;28;20186;-93
2022/02/11 16:03:56;;;;;;;22.42;20.23;;;;;;;;;;5018166;28;20221;-93
2022/02/11 16:06:24;;;;;;;21.17;19.45;;;;;;;;;;5019632;28;20553;-91
2022/02/11 16:08:51;;;;;;;21.17;19.73;;;;;;;;;;5018005;28;20244;-89
2022/02/11 16:11:18;;;;;;;20.40;18.85;;;;;;;;;;5016933;28;20637;-86
2022/02/11 16:13:46;;;;;;;22.15;20.20;;;;;;;;;;5016958;28;20198;-88
2022/02/11 16:16:15;;;;;;;30.63;21.05;;;;;;;;;;5016045;28;20256;-87
2022/02/11 16:18:42;;;;;;;22.15;20.65;;;;;;;;;;5017471;28;20218;-88
2022/02/11 16:21:10;;;;;;;22.08;19.92;;;;;;;;;;5017522;28;20194;-89
2022/02/11 16:23:40;;;;;;;21.35;19.60;;;;;;;;;;5016962;28;20222;-89
2022/02/11 16:26:09;;;;;;;21.02;19.30;;;;;;;;;;5016342;28;20618;-85
2022/02/11 16:28:36;;;;;;;20.88;19.30;;;;;;;;;;5016868;28;20190;-84
2022/02/11 16:31:18;;;;;;;20.98;19.10;;;;;;;;;;5016131;28;20198;-82
2022/02/11 16:33:45;;;;;;;20.95;19.20;;;;;;;;;;5015320;28;20261;-82
2022/02/11 16:36:13;;;;;;;20.90;19.17;;;;;;;;;;5015739;28;20194;-82
2022/02/11 16:38:42;;;;;;;23.42;21.63;;;;;;;;;;5014385;28;20197;-82
2022/02/11 16:41:10;;;;;;;22.20;19.60;;;;;;;;;;5015612;28;20190;-82
2022/02/11 16:43:37;;;;;;;21.50;19.95;;;;;;;;;;5015124;28;20225;-82
2022/02/11 16:46:05;;;;;;;22.02;19.92;;;;;;;;;;5014055;28;20210;-82
2022/02/11 16:48:34;;;;;;;21.85;20.30;;;;;;;;;;5013989;28;20684;-82
2022/02/11 16:51:01;;;;;;;23.23;20.70;;;;;;;;;;5015308;28;20289;-81
2022/02/11 16:53:29;;;;;;;23.08;21.17;;;;;;;;;;5015061;28;20217;-81
2022/02/11 16:55:56;;;;;;;22.90;20.60;;;;;;;;;;5013999;28;20628;-81
2022/02/11 16:58:25;;;;;;;25.80;23.45;;;;;;;;;;5015394;28;20194;-82
2022/02/11 17:00:52;;;;;;;23.25;21.48;;;;;;;;;;5015194;28;20186;-82
2022/02/11 17:03:19;;;;;;;23.17;20.75;;;;;;;;;;5015340;28;20193;-82
2022/02/11 17:05:48;;;;;;;24.40;21.88;;;;;;;;;;5015177;28;20194;-81
2022/02/11 17:08:15;;;;;;;23.05;21.05;;;;;;;;;;5015106;28;20191;-82
2022/02/11 17:10:44;;;;;;;22.70;20.80;;;;;;;;;;5014781;28;20201;-83
2022/02/11 17:13:12;;;;;;;27.92;24.73;;;;;;;;;;5014738;28;20186;-85
2022/02/11 17:15:39;;;;;;;21.27;19.50;;;;;;;;;;5015906;28;20555;-84
2022/02/11 17:18:07;;;;;;;22.98;20.98;;;;;;;;;;5015822;28;20198;-84
2022/02/11 17:20:35;;;;;;;21.92;20.23;;;;;;;;;;5015127;28;20384;-82
2022/02/11 17:23:03;;;;;;;22.38;20.67;;;;;;;;;;5015042;28;20624;-82
2022/02/11 17:25:31;;;;;;;22.30;20.58;;;;;;;;;;5013247;28;20284;-82
2022/02/11 17:27:58;;;;;;;22.88;20.83;;;;;;;;;;5014177;28;20209;-94
2022/02/11 17:30:26;;;;;;;22.00;19.98;;;;;;;;;;5014627;28;20194;-79
2022/02/11 17:32:54;;;;;;;22.15;20.75;;;;;;;;;;5014250;28;20673;-82
2022/02/11 17:35:23;;;;;;;22.15;20.05;;;;;;;;;;5014853;28;20194;-86
2022/02/11 17:37:51;;;;;;;23.05;21.02;;;;;;;;;;5015723;28;20198;-79
2022/02/11 17:40:20;;;;;;;22.42;20.50;;;;;;;;;;5014540;28;20229;-83
2022/02/11 17:42:48;;;;;;;22.80;20.73;;;;;;;;;;5014687;28;20197;-83
2022/02/11 17:45:16;;;;;;;22.88;20.98;;;;;;;;;;5014825;28;20218;-83
2022/02/11 17:47:43;;;;;;;23.27;21.35;;;;;;;;;;5001081;28;20198;-83
2022/02/11 17:50:10;;;;;;;23.30;21.42;;;;;;;;;;5004466;28;20209;-83